sensor_id;sensor_type;location;lat;lon;timestamp;pressure;altitude;pressure_sealevel;temperature;humidity
44027;BME280;29696;55.698;37.460;2022-08-21T00:00:18;100392.31;;;18.45;40.22
44027;BME280;29696;55.698;37.460;2022-08-21T00:02:55;100398.16;;;18.48;40.30
44027;BME280;29696;55.698;37.460;2022-08-21T00:05:23;100393.66;;;18.41;40.29
44027;BME280;29696;55.698;37.460;2022-08-21T00:07:50;100385.97;;;18.38;40.26
44027;BME280;29696;55.698;37.460;2022-08-21T00:10:17;100394.13;;;18.36;40.49
44027;BME280;29696;55.698;37.460;2022-08-21T00:12:44;100386.44;;;18.33;40.47
44027;BME280;29696;55.698;37.460;2022-08-21T00:15:15;100401.34;;;18.36;40.60
44027;BME280;29696;55.698;37.460;2022-08-21T00:17:42;100380.44;;;18.31;40.26
44027;BME280;29696;55.698;37.460;2022-08-21T00:20:10;100392.81;;;18.32;40.37
44027;BME280;29696;55.698;37.460;2022-08-21T00:22:38;100378.75;;;18.30;40.65
44027;BME280;29696;55.698;37.460;2022-08-21T00:25:05;100399.66;;;18.27;40.42
44027;BME280;29696;55.698;37.460;2022-08-21T00:27:33;100392.78;;;18.24;40.32
44027;BME280;29696;55.698;37.460;2022-08-21T00:29:59;100389.47;;;18.22;40.63
44027;BME280;29696;55.698;37.460;2022-08-21T00:32:27;100395.16;;;18.19;40.48
44027;BME280;29696;55.698;37.460;2022-08-21T00:34:54;100393.63;;;18.16;40.66
44027;BME280;29696;55.698;37.460;2022-08-21T00:37:20;100400.13;;;18.14;40.79
44027;BME280;29696;55.698;37.460;2022-08-21T00:39:46;100400.47;;;18.11;40.76
44027;BME280;29696;55.698;37.460;2022-08-21T00:42:13;100388.06;;;18.10;40.79
44027;BME280;29696;55.698;37.460;2022-08-21T00:44:42;100383.38;;;18.03;40.99
44027;BME280;29696;55.698;37.460;2022-08-21T00:47:10;100375.53;;;18.02;40.89
44027;BME280;29696;55.698;37.460;2022-08-21T00:49:38;100381.03;;;18.00;41.24
44027;BME280;29696;55.698;37.460;2022-08-21T00:52:10;100385.56;;;18.00;41.07
44027;BME280;29696;55.698;37.460;2022-08-21T00:54:39;100380.50;;;17.89;41.00
44027;BME280;29696;55.698;37.460;2022-08-21T00:57:14;100386.22;;;17.94;41.17
44027;BME280;29696;55.698;37.460;2022-08-21T00:59:45;100388.84;;;17.86;41.55
44027;BME280;29696;55.698;37.460;2022-08-21T01:02:12;100393.03;;;17.80;41.39
44027;BME280;29696;55.698;37.460;2022-08-21T01:04:39;100388.84;;;17.77;41.54
44027;BME280;29696;55.698;37.460;2022-08-21T01:07:05;100390.13;;;17.73;41.72
44027;BME280;29696;55.698;37.460;2022-08-21T01:09:32;100407.50;;;17.69;41.62
44027;BME280;29696;55.698;37.460;2022-08-21T01:11:59;100400.81;;;17.65;41.64
44027;BME280;29696;55.698;37.460;2022-08-21T01:14:26;100394.78;;;17.63;41.56
44027;BME280;29696;55.698;37.460;2022-08-21T01:16:53;100398.47;;;17.62;41.99
44027;BME280;29696;55.698;37.460;2022-08-21T01:19:21;100398.59;;;17.61;41.97
44027;BME280;29696;55.698;37.460;2022-08-21T01:21:48;100378.19;;;17.51;42.10
44027;BME280;29696;55.698;37.460;2022-08-21T01:24:14;100385.72;;;17.48;42.09
44027;BME280;29696;55.698;37.460;2022-08-21T01:26:42;100384.19;;;17.45;42.10
44027;BME280;29696;55.698;37.460;2022-08-21T01:32:36;100384.97;;;17.38;42.41
44027;BME280;29696;55.698;37.460;2022-08-21T01:35:04;100387.44;;;17.31;42.48
44027;BME280;29696;55.698;37.460;2022-08-21T01:37:31;100378.41;;;17.24;42.86
44027;BME280;29696;55.698;37.460;2022-08-21T01:39:57;100388.41;;;17.22;42.95
44027;BME280;29696;55.698;37.460;2022-08-21T01:42:24;100385.03;;;17.20;42.85
44027;BME280;29696;55.698;37.460;2022-08-21T01:44:50;100397.75;;;17.18;42.87
44027;BME280;29696;55.698;37.460;2022-08-21T01:47:17;100385.53;;;17.15;43.06
44027;BME280;29696;55.698;37.460;2022-08-21T01:49:44;100380.50;;;17.12;43.04
44027;BME280;29696;55.698;37.460;2022-08-21T01:52:11;100386.00;;;17.10;43.07
44027;BME280;29696;55.698;37.460;2022-08-21T01:54:38;100391.34;;;17.10;43.06
44027;BME280;29696;55.698;37.460;2022-08-21T01:57:05;100387.16;;;17.08;43.27
44027;BME280;29696;55.698;37.460;2022-08-21T01:59:32;100383.81;;;17.06;43.27
44027;BME280;29696;55.698;37.460;2022-08-21T02:01:59;100391.13;;;17.04;43.08
44027;BME280;29696;55.698;37.460;2022-08-21T02:04:25;100381.47;;;17.03;42.95
44027;BME280;29696;55.698;37.460;2022-08-21T02:06:52;100393.81;;;17.04;43.12
44027;BME280;29696;55.698;37.460;2022-08-21T02:09:18;100396.47;;;17.04;43.31
44027;BME280;29696;55.698;37.460;2022-08-21T02:11:45;100390.44;;;17.02;43.23
44027;BME280;29696;55.698;37.460;2022-08-21T02:14:13;100399.47;;;17.01;43.24
44027;BME280;29696;55.698;37.460;2022-08-21T02:16:42;100398.94;;;16.97;43.43
44027;BME280;29696;55.698;37.460;2022-08-21T02:19:11;100401.94;;;16.94;43.36
44027;BME280;29696;55.698;37.460;2022-08-21T02:21:38;100389.94;;;16.98;43.29
44027;BME280;29696;55.698;37.460;2022-08-21T02:24:05;100388.97;;;16.99;43.05
44027;BME280;29696;55.698;37.460;2022-08-21T02:26:51;100398.47;;;17.02;43.23
44027;BME280;29696;55.698;37.460;2022-08-21T02:29:17;100398.31;;;17.03;43.18
44027;BME280;29696;55.698;37.460;2022-08-21T02:31:44;100389.31;;;17.04;43.19
44027;BME280;29696;55.698;37.460;2022-08-21T02:34:10;100396.66;;;17.02;42.90
44027;BME280;29696;55.698;37.460;2022-08-21T02:36:36;100392.81;;;17.05;42.92
44027;BME280;29696;55.698;37.460;2022-08-21T02:39:03;100397.81;;;17.08;42.88
44027;BME280;29696;55.698;37.460;2022-08-21T02:41:29;100395.84;;;17.10;43.00
44027;BME280;29696;55.698;37.460;2022-08-21T02:43:55;100398.91;;;17.15;42.76
44027;BME280;29696;55.698;37.460;2022-08-21T02:46:22;100400.09;;;17.21;42.92
44027;BME280;29696;55.698;37.460;2022-08-21T02:48:48;100394.44;;;17.24;42.65
44027;BME280;29696;55.698;37.460;2022-08-21T02:51:18;100395.78;;;17.28;42.46
44027;BME280;29696;55.698;37.460;2022-08-21T02:53:46;100406.31;;;17.29;42.50
44027;BME280;29696;55.698;37.460;2022-08-21T02:56:16;100396.84;;;17.35;42.51
44027;BME280;29696;55.698;37.460;2022-08-21T02:58:46;100391.00;;;17.40;42.58
44027;BME280;29696;55.698;37.460;2022-08-21T03:01:13;100392.34;;;17.44;42.18
44027;BME280;29696;55.698;37.460;2022-08-21T03:03:42;100411.09;;;17.52;42.21
44027;BME280;29696;55.698;37.460;2022-08-21T03:06:12;100404.63;;;17.63;42.31
44027;BME280;29696;55.698;37.460;2022-08-21T03:08:39;100416.84;;;17.65;41.71
44027;BME280;29696;55.698;37.460;2022-08-21T03:11:06;100409.97;;;17.63;41.94
44027;BME280;29696;55.698;37.460;2022-08-21T03:13:33;100412.00;;;17.69;41.76
44027;BME280;29696;55.698;37.460;2022-08-21T03:15:59;100403.50;;;17.73;41.43
44027;BME280;29696;55.698;37.460;2022-08-21T03:18:25;100406.09;;;17.83;41.48
44027;BME280;29696;55.698;37.460;2022-08-21T03:20:52;100403.63;;;17.98;41.39
44027;BME280;29696;55.698;37.460;2022-08-21T03:23:18;100408.34;;;18.20;40.88
44027;BME280;29696;55.698;37.460;2022-08-21T03:25:46;100411.56;;;18.89;39.59
44027;BME280;29696;55.698;37.460;2022-08-21T03:28:16;100412.25;;;19.47;38.24
44027;BME280;29696;55.698;37.460;2022-08-21T03:30:44;100405.50;;;19.76;37.58
44027;BME280;29696;55.698;37.460;2022-08-21T03:33:11;100408.03;;;20.00;37.25
44027;BME280;29696;55.698;37.460;2022-08-21T03:35:38;100407.00;;;20.33;36.43
44027;BME280;29696;55.698;37.460;2022-08-21T03:38:04;100415.28;;;20.46;36.13
44027;BME280;29696;55.698;37.460;2022-08-21T03:40:30;100416.50;;;20.43;36.11
44027;BME280;29696;55.698;37.460;2022-08-21T03:42:57;100404.00;;;20.50;35.99
44027;BME280;29696;55.698;37.460;2022-08-21T03:45:25;100417.69;;;20.64;35.66
44027;BME280;29696;55.698;37.460;2022-08-21T03:47:57;100411.28;;;21.03;35.45
44027;BME280;29696;55.698;37.460;2022-08-21T03:50:27;100415.06;;;20.93;35.17
44027;BME280;29696;55.698;37.460;2022-08-21T03:52:54;100414.91;;;20.95;35.27
44027;BME280;29696;55.698;37.460;2022-08-21T03:55:21;100408.34;;;20.97;35.17
44027;BME280;29696;55.698;37.460;2022-08-21T03:57:47;100409.81;;;20.85;35.25
44027;BME280;29696;55.698;37.460;2022-08-21T04:00:15;100423.50;;;20.90;34.87
44027;BME280;29696;55.698;37.460;2022-08-21T04:02:42;100410.19;;;21.12;34.53
44027;BME280;29696;55.698;37.460;2022-08-21T04:05:11;100403.56;;;21.37;34.27
44027;BME280;29696;55.698;37.460;2022-08-21T04:07:38;100422.69;;;21.42;33.83
44027;BME280;29696;55.698;37.460;2022-08-21T04:10:06;100418.31;;;21.41;34.14
44027;BME280;29696;55.698;37.460;2022-08-21T04:12:33;100396.97;;;21.70;33.21
44027;BME280;29696;55.698;37.460;2022-08-21T04:14:59;100392.25;;;22.08;32.50
44027;BME280;29696;55.698;37.460;2022-08-21T04:17:29;100392.78;;;22.40;32.37
44027;BME280;29696;55.698;37.460;2022-08-21T04:19:56;100405.75;;;22.29;32.41
44027;BME280;29696;55.698;37.460;2022-08-21T04:22:22;100400.75;;;22.11;32.45
44027;BME280;29696;55.698;37.460;2022-08-21T04:24:48;100400.31;;;22.23;32.54
44027;BME280;29696;55.698;37.460;2022-08-21T04:27:15;100402.59;;;22.69;31.53
44027;BME280;29696;55.698;37.460;2022-08-21T04:29:41;100403.47;;;22.54;32.07
44027;BME280;29696;55.698;37.460;2022-08-21T04:32:08;100404.09;;;22.50;32.05
44027;BME280;29696;55.698;37.460;2022-08-21T04:34:34;100404.09;;;22.50;31.54
44027;BME280;29696;55.698;37.460;2022-08-21T04:37:00;100402.06;;;22.80;31.47
44027;BME280;29696;55.698;37.460;2022-08-21T04:39:26;100415.44;;;22.73;31.03
44027;BME280;29696;55.698;37.460;2022-08-21T04:41:53;100409.94;;;22.82;31.27
44027;BME280;29696;55.698;37.460;2022-08-21T04:44:19;100415.97;;;22.84;31.07
44027;BME280;29696;55.698;37.460;2022-08-21T04:46:45;100414.47;;;23.31;30.77
44027;BME280;29696;55.698;37.460;2022-08-21T04:49:11;100404.56;;;23.73;29.92
44027;BME280;29696;55.698;37.460;2022-08-21T04:51:38;100424.88;;;24.30;29.05
44027;BME280;29696;55.698;37.460;2022-08-21T04:54:14;100424.91;;;25.36;27.90
44027;BME280;29696;55.698;37.460;2022-08-21T04:56:47;100419.16;;;25.78;27.05
44027;BME280;29696;55.698;37.460;2022-08-21T04:59:19;100414.75;;;26.28;26.33
44027;BME280;29696;55.698;37.460;2022-08-21T05:01:47;100402.47;;;26.82;25.29
44027;BME280;29696;55.698;37.460;2022-08-21T05:04:16;100419.56;;;27.51;24.79
44027;BME280;29696;55.698;37.460;2022-08-21T05:06:46;100409.69;;;27.39;25.02
44027;BME280;29696;55.698;37.460;2022-08-21T05:09:15;100417.25;;;27.12;24.99
44027;BME280;29696;55.698;37.460;2022-08-21T05:11:43;100414.81;;;27.03;25.02
44027;BME280;29696;55.698;37.460;2022-08-21T05:14:11;100424.00;;;27.46;24.79
44027;BME280;29696;55.698;37.460;2022-08-21T05:16:38;100406.00;;;27.88;24.36
44027;BME280;29696;55.698;37.460;2022-08-21T05:19:06;100415.47;;;28.28;23.62
44027;BME280;29696;55.698;37.460;2022-08-21T05:21:37;100414.06;;;28.37;23.83
44027;BME280;29696;55.698;37.460;2022-08-21T05:24:04;100405.59;;;28.15;23.56
44027;BME280;29696;55.698;37.460;2022-08-21T05:26:30;100408.84;;;28.65;22.85
44027;BME280;29696;55.698;37.460;2022-08-21T05:28:57;100408.38;;;29.39;22.34
44027;BME280;29696;55.698;37.460;2022-08-21T05:31:23;100406.63;;;29.85;21.58
44027;BME280;29696;55.698;37.460;2022-08-21T05:33:50;100404.81;;;30.31;21.67
44027;BME280;29696;55.698;37.460;2022-08-21T05:36:17;100407.72;;;30.92;20.68
44027;BME280;29696;55.698;37.460;2022-08-21T05:38:44;100397.16;;;31.78;20.14
44027;BME280;29696;55.698;37.460;2022-08-21T05:41:10;100405.41;;;32.05;19.64
44027;BME280;29696;55.698;37.460;2022-08-21T05:43:36;100411.75;;;32.11;19.51
44027;BME280;29696;55.698;37.460;2022-08-21T05:46:04;100411.63;;;32.50;18.95
44027;BME280;29696;55.698;37.460;2022-08-21T05:48:34;100413.88;;;32.95;19.02
44027;BME280;29696;55.698;37.460;2022-08-21T05:51:06;100413.75;;;33.17;18.66
44027;BME280;29696;55.698;37.460;2022-08-21T05:53:33;100399.44;;;33.00;18.39
44027;BME280;29696;55.698;37.460;2022-08-21T05:55:59;100399.94;;;33.45;17.65
44027;BME280;29696;55.698;37.460;2022-08-21T05:58:26;100401.25;;;33.32;18.02
44027;BME280;29696;55.698;37.460;2022-08-21T06:00:52;100409.69;;;33.83;17.30
44027;BME280;29696;55.698;37.460;2022-08-21T06:03:23;100420.13;;;33.81;17.05
44027;BME280;29696;55.698;37.460;2022-08-21T06:05:50;100401.38;;;32.67;17.49
44027;BME280;29696;55.698;37.460;2022-08-21T06:08:18;100401.38;;;32.72;17.89
44027;BME280;29696;55.698;37.460;2022-08-21T06:10:46;100403.41;;;33.25;17.56
44027;BME280;29696;55.698;37.460;2022-08-21T06:13:13;100399.50;;;33.68;17.17
44027;BME280;29696;55.698;37.460;2022-08-21T06:15:40;100404.56;;;34.02;17.06
44027;BME280;29696;55.698;37.460;2022-08-21T06:18:07;100394.44;;;34.13;16.68
44027;BME280;29696;55.698;37.460;2022-08-21T06:20:33;100396.69;;;34.46;16.61
44027;BME280;29696;55.698;37.460;2022-08-21T06:23:01;100384.16;;;35.46;16.09
44027;BME280;29696;55.698;37.460;2022-08-21T06:25:28;100393.06;;;36.32;15.40
44027;BME280;29696;55.698;37.460;2022-08-21T06:28:07;100407.03;;;37.04;14.62
44027;BME280;29696;55.698;37.460;2022-08-21T06:30:35;100397.84;;;35.66;15.18
44027;BME280;29696;55.698;37.460;2022-08-21T06:33:02;100402.16;;;34.97;15.87
44027;BME280;29696;55.698;37.460;2022-08-21T06:35:29;100393.38;;;34.80;15.92
44027;BME280;29696;55.698;37.460;2022-08-21T06:37:57;100392.81;;;34.88;16.04
44027;BME280;29696;55.698;37.460;2022-08-21T06:40:24;100384.53;;;35.09;15.41
44027;BME280;29696;55.698;37.460;2022-08-21T06:42:52;100396.97;;;34.60;15.88
44027;BME280;29696;55.698;37.460;2022-08-21T06:45:18;100383.78;;;34.57;16.06
44027;BME280;29696;55.698;37.460;2022-08-21T06:47:45;100390.59;;;34.90;16.01
44027;BME280;29696;55.698;37.460;2022-08-21T06:50:11;100391.41;;;35.11;15.75
44027;BME280;29696;55.698;37.460;2022-08-21T06:52:38;100381.22;;;35.22;15.60
44027;BME280;29696;55.698;37.460;2022-08-21T06:55:09;100388.66;;;35.21;15.62
44027;BME280;29696;55.698;37.460;2022-08-21T06:57:36;100378.13;;;35.54;15.45
44027;BME280;29696;55.698;37.460;2022-08-21T07:00:06;100391.09;;;35.33;15.55
44027;BME280;29696;55.698;37.460;2022-08-21T07:02:32;100379.69;;;34.60;15.83
44027;BME280;29696;55.698;37.460;2022-08-21T07:04:59;100385.13;;;34.70;15.71
44027;BME280;29696;55.698;37.460;2022-08-21T07:07:26;100360.13;;;34.92;15.77
44027;BME280;29696;55.698;37.460;2022-08-21T07:09:52;100363.66;;;35.18;15.02
44027;BME280;29696;55.698;37.460;2022-08-21T07:12:19;100374.47;;;35.69;14.74
44027;BME280;29696;55.698;37.460;2022-08-21T07:14:45;100362.50;;;35.29;14.84
44027;BME280;29696;55.698;37.460;2022-08-21T07:17:12;100361.69;;;35.34;15.42
44027;BME280;29696;55.698;37.460;2022-08-21T07:19:38;100364.97;;;36.35;14.53
44027;BME280;29696;55.698;37.460;2022-08-21T07:22:04;100359.38;;;36.74;14.30
44027;BME280;29696;55.698;37.460;2022-08-21T07:24:30;100364.72;;;36.66;14.54
44027;BME280;29696;55.698;37.460;2022-08-21T07:26:57;100370.47;;;36.35;14.42
44027;BME280;29696;55.698;37.460;2022-08-21T07:29:23;100361.88;;;36.02;14.30
44027;BME280;29696;55.698;37.460;2022-08-21T07:31:49;100374.22;;;35.50;14.44
44027;BME280;29696;55.698;37.460;2022-08-21T07:34:16;100368.44;;;35.62;14.66
44027;BME280;29696;55.698;37.460;2022-08-21T07:36:42;100363.03;;;35.96;14.16
44027;BME280;29696;55.698;37.460;2022-08-21T07:39:08;100369.97;;;36.62;13.98
44027;BME280;29696;55.698;37.460;2022-08-21T07:41:34;100354.63;;;36.56;13.84
44027;BME280;29696;55.698;37.460;2022-08-21T07:44:01;100371.03;;;36.66;13.94
44027;BME280;29696;55.698;37.460;2022-08-21T07:46:27;100359.53;;;35.20;14.51
44027;BME280;29696;55.698;37.460;2022-08-21T07:48:54;100360.63;;;35.19;14.55
44027;BME280;29696;55.698;37.460;2022-08-21T07:51:25;100371.63;;;35.14;15.49
44027;BME280;29696;55.698;37.460;2022-08-21T07:53:55;100353.81;;;35.07;15.30
44027;BME280;29696;55.698;37.460;2022-08-21T07:56:22;100351.53;;;35.29;14.72
44027;BME280;29696;55.698;37.460;2022-08-21T07:58:49;100363.50;;;35.64;14.48
44027;BME280;29696;55.698;37.460;2022-08-21T08:01:16;100358.13;;;35.28;14.78
44027;BME280;29696;55.698;37.460;2022-08-21T08:03:42;100342.78;;;35.12;14.61
44027;BME280;29696;55.698;37.460;2022-08-21T08:06:09;100346.03;;;35.29;15.06
44027;BME280;29696;55.698;37.460;2022-08-21T08:08:38;100346.41;;;34.92;15.23
44027;BME280;29696;55.698;37.460;2022-08-21T08:11:05;100329.69;;;34.88;15.53
44027;BME280;29696;55.698;37.460;2022-08-21T08:13:38;100347.22;;;35.08;15.39
44027;BME280;29696;55.698;37.460;2022-08-21T08:16:05;100342.66;;;33.43;16.34
44027;BME280;29696;55.698;37.460;2022-08-21T08:18:31;100323.38;;;32.65;16.96
44027;BME280;29696;55.698;37.460;2022-08-21T08:20:58;100337.66;;;32.08;17.23
44027;BME280;29696;55.698;37.460;2022-08-21T08:23:24;100320.81;;;31.67;18.30
44027;BME280;29696;55.698;37.460;2022-08-21T08:25:51;100345.56;;;30.94;18.39
44027;BME280;29696;55.698;37.460;2022-08-21T08:28:17;100323.94;;;30.37;18.66
44027;BME280;29696;55.698;37.460;2022-08-21T08:30:47;100325.81;;;30.36;19.50
44027;BME280;29696;55.698;37.460;2022-08-21T08:33:14;100330.84;;;29.82;19.92
44027;BME280;29696;55.698;37.460;2022-08-21T08:35:42;100324.88;;;28.93;20.57
44027;BME280;29696;55.698;37.460;2022-08-21T08:38:10;100338.50;;;28.69;21.01
44027;BME280;29696;55.698;37.460;2022-08-21T08:43:32;100328.09;;;27.52;22.34
44027;BME280;29696;55.698;37.460;2022-08-21T08:46:04;100319.38;;;27.31;22.88
44027;BME280;29696;55.698;37.460;2022-08-21T08:48:53;100314.97;;;27.49;22.86
44027;BME280;29696;55.698;37.460;2022-08-21T08:51:32;100319.97;;;27.15;23.65
44027;BME280;29696;55.698;37.460;2022-08-21T08:54:06;100332.66;;;26.78;22.86
44027;BME280;29696;55.698;37.460;2022-08-21T08:56:35;100325.06;;;26.36;23.44
44027;BME280;29696;55.698;37.460;2022-08-21T08:59:23;100322.69;;;26.47;22.83
44027;BME280;29696;55.698;37.460;2022-08-21T09:01:52;100327.22;;;25.96;23.75
44027;BME280;29696;55.698;37.460;2022-08-21T09:04:25;100334.13;;;25.92;23.74
44027;BME280;29696;55.698;37.460;2022-08-21T09:07:40;100330.03;;;26.14;23.71
44027;BME280;29696;55.698;37.460;2022-08-21T09:13:38;100318.22;;;26.09;23.73
44027;BME280;29696;55.698;37.460;2022-08-21T09:19:44;100318.34;;;26.21;23.15
44027;BME280;29696;55.698;37.460;2022-08-21T09:25:42;100309.38;;;26.45;22.86
44027;BME280;29696;55.698;37.460;2022-08-21T09:28:12;100322.53;;;26.41;22.64
44027;BME280;29696;55.698;37.460;2022-08-21T09:30:41;100330.41;;;26.50;22.60
44027;BME280;29696;55.698;37.460;2022-08-21T09:33:11;100319.28;;;26.58;22.47
44027;BME280;29696;55.698;37.460;2022-08-21T09:35:51;100323.41;;;26.85;22.60
44027;BME280;29696;55.698;37.460;2022-08-21T09:38:30;100316.16;;;26.98;22.45
44027;BME280;29696;55.698;37.460;2022-08-21T09:41:08;100321.75;;;26.84;22.45
44027;BME280;29696;55.698;37.460;2022-08-21T09:43:36;100315.38;;;26.54;23.03
44027;BME280;29696;55.698;37.460;2022-08-21T09:46:21;100306.66;;;26.70;22.58
44027;BME280;29696;55.698;37.460;2022-08-21T09:48:50;100305.66;;;26.39;22.97
44027;BME280;29696;55.698;37.460;2022-08-21T09:51:24;100313.56;;;26.41;23.11
44027;BME280;29696;55.698;37.460;2022-08-21T09:53:58;100315.00;;;26.44;22.89
44027;BME280;29696;55.698;37.460;2022-08-21T09:56:30;100308.19;;;26.34;22.85
44027;BME280;29696;55.698;37.460;2022-08-21T09:59:27;100321.03;;;26.46;22.41
44027;BME280;29696;55.698;37.460;2022-08-21T10:01:58;100303.78;;;26.15;22.51
44027;BME280;29696;55.698;37.460;2022-08-21T10:04:31;100323.78;;;26.14;22.46
44027;BME280;29696;55.698;37.460;2022-08-21T10:07:13;100313.63;;;26.34;22.19
44027;BME280;29696;55.698;37.460;2022-08-21T10:09:41;100312.56;;;26.10;22.68
44027;BME280;29696;55.698;37.460;2022-08-21T10:12:40;100317.41;;;26.33;22.79
44027;BME280;29696;55.698;37.460;2022-08-21T10:15:24;100328.25;;;26.02;22.95
44027;BME280;29696;55.698;37.460;2022-08-21T10:21:31;100304.13;;;25.93;22.58
44027;BME280;29696;55.698;37.460;2022-08-21T10:27:39;100299.16;;;25.90;23.02
44027;BME280;29696;55.698;37.460;2022-08-21T10:30:19;100299.69;;;25.67;23.39
44027;BME280;29696;55.698;37.460;2022-08-21T10:33:13;100286.31;;;25.79;23.12
44027;BME280;29696;55.698;37.460;2022-08-21T10:36:18;100293.78;;;25.84;23.48
44027;BME280;29696;55.698;37.460;2022-08-21T10:39:27;100285.59;;;25.97;23.30
44027;BME280;29696;55.698;37.460;2022-08-21T10:42:42;100289.31;;;26.03;23.36
44027;BME280;29696;55.698;37.460;2022-08-21T10:52:27;100274.38;;;25.87;23.97
44027;BME280;29696;55.698;37.460;2022-08-21T10:55:26;100258.00;;;25.75;24.33
44027;BME280;29696;55.698;37.460;2022-08-21T10:58:25;100259.22;;;25.86;24.56
44027;BME280;29696;55.698;37.460;2022-08-21T11:00:56;100257.84;;;25.70;24.30
44027;BME280;29696;55.698;37.460;2022-08-21T11:03:51;100260.66;;;25.88;23.99
44027;BME280;29696;55.698;37.460;2022-08-21T11:06:24;100260.69;;;25.82;24.04
44027;BME280;29696;55.698;37.460;2022-08-21T11:08:57;100264.19;;;25.89;23.86
44027;BME280;29696;55.698;37.460;2022-08-21T11:11:31;100276.91;;;25.88;23.75
44027;BME280;29696;55.698;37.460;2022-08-21T11:14:03;100263.59;;;25.80;22.96
44027;BME280;29696;55.698;37.460;2022-08-21T11:16:46;100267.09;;;25.87;23.06
44027;BME280;29696;55.698;37.460;2022-08-21T11:19:54;100263.50;;;25.93;23.05
44027;BME280;29696;55.698;37.460;2022-08-21T11:22:54;100270.59;;;25.94;23.00
44027;BME280;29696;55.698;37.460;2022-08-21T11:25:29;100276.28;;;25.86;23.52
44027;BME280;29696;55.698;37.460;2022-08-21T11:31:27;100269.53;;;25.95;22.70
44027;BME280;29696;55.698;37.460;2022-08-21T11:34:31;100273.56;;;25.86;23.17
44027;BME280;29696;55.698;37.460;2022-08-21T11:43:25;100272.13;;;25.84;23.13
44027;BME280;29696;55.698;37.460;2022-08-21T11:46:00;100255.81;;;25.59;23.54
44027;BME280;29696;55.698;37.460;2022-08-21T11:52:21;100247.22;;;25.68;23.92
44027;BME280;29696;55.698;37.460;2022-08-21T11:55:19;100244.94;;;25.65;24.07
44027;BME280;29696;55.698;37.460;2022-08-21T12:06:48;100255.72;;;25.34;23.93
44027;BME280;29696;55.698;37.460;2022-08-21T12:17:39;100229.19;;;25.17;24.41
44027;BME280;29696;55.698;37.460;2022-08-21T12:20:42;100239.94;;;25.31;25.00
44027;BME280;29696;55.698;37.460;2022-08-21T12:23:33;100249.91;;;25.30;25.13
44027;BME280;29696;55.698;37.460;2022-08-21T12:26:24;100221.41;;;25.27;24.97
44027;BME280;29696;55.698;37.460;2022-08-21T12:28:49;100234.50;;;25.31;24.34
44027;BME280;29696;55.698;37.460;2022-08-21T12:31:22;100250.06;;;25.42;24.38
44027;BME280;29696;55.698;37.460;2022-08-21T12:34:00;100235.47;;;25.49;23.34
44027;BME280;29696;55.698;37.460;2022-08-21T12:36:47;100234.16;;;25.59;23.75
44027;BME280;29696;55.698;37.460;2022-08-21T12:39:22;100246.44;;;25.55;22.81
44027;BME280;29696;55.698;37.460;2022-08-21T12:44:55;100247.06;;;25.57;22.67
44027;BME280;29696;55.698;37.460;2022-08-21T12:47:47;100235.00;;;25.59;22.73
44027;BME280;29696;55.698;37.460;2022-08-21T12:53:25;100240.16;;;25.67;22.19
44027;BME280;29696;55.698;37.460;2022-08-21T12:55:52;100217.56;;;25.48;22.51
44027;BME280;29696;55.698;37.460;2022-08-21T12:58:23;100223.38;;;25.52;22.57
44027;BME280;29696;55.698;37.460;2022-08-21T13:01:05;100221.91;;;25.56;22.81
44027;BME280;29696;55.698;37.460;2022-08-21T13:03:37;100225.66;;;25.55;22.74
44027;BME280;29696;55.698;37.460;2022-08-21T13:06:04;100219.81;;;25.51;22.97
44027;BME280;29696;55.698;37.460;2022-08-21T13:08:33;100221.28;;;25.54;23.39
44027;BME280;29696;55.698;37.460;2022-08-21T13:11:05;100213.44;;;25.46;22.99
44027;BME280;29696;55.698;37.460;2022-08-21T13:13:32;100213.63;;;25.44;23.22
44027;BME280;29696;55.698;37.460;2022-08-21T13:16:03;100215.03;;;25.54;23.34
44027;BME280;29696;55.698;37.460;2022-08-21T13:18:34;100214.41;;;25.51;23.09
44027;BME280;29696;55.698;37.460;2022-08-21T13:21:12;100213.53;;;25.64;23.39
44027;BME280;29696;55.698;37.460;2022-08-21T13:23:40;100210.69;;;25.53;23.14
44027;BME280;29696;55.698;37.460;2022-08-21T13:26:19;100236.81;;;25.65;23.53
44027;BME280;29696;55.698;37.460;2022-08-21T13:28:46;100220.63;;;25.59;23.26
44027;BME280;29696;55.698;37.460;2022-08-21T13:31:26;100212.41;;;25.72;23.51
44027;BME280;29696;55.698;37.460;2022-08-21T13:33:53;100212.69;;;25.64;23.71
44027;BME280;29696;55.698;37.460;2022-08-21T13:36:26;100224.63;;;25.81;23.81
44027;BME280;29696;55.698;37.460;2022-08-21T13:38:55;100209.25;;;25.75;23.35
44027;BME280;29696;55.698;37.460;2022-08-21T13:41:32;100219.59;;;25.91;23.82
44027;BME280;29696;55.698;37.460;2022-08-21T13:44:23;100219.97;;;25.95;23.38
44027;BME280;29696;55.698;37.460;2022-08-21T13:46:53;100215.91;;;25.79;23.16
44027;BME280;29696;55.698;37.460;2022-08-21T13:49:25;100206.31;;;25.83;23.27
44027;BME280;29696;55.698;37.460;2022-08-21T13:51:53;100196.16;;;25.79;23.49
44027;BME280;29696;55.698;37.460;2022-08-21T13:54:40;100211.22;;;26.00;23.10
44027;BME280;29696;55.698;37.460;2022-08-21T13:57:18;100203.19;;;25.86;23.47
44027;BME280;29696;55.698;37.460;2022-08-21T13:59:45;100205.97;;;25.73;23.54
44027;BME280;29696;55.698;37.460;2022-08-21T14:02:23;100191.97;;;25.83;23.32
44027;BME280;29696;55.698;37.460;2022-08-21T14:04:55;100185.97;;;25.74;23.62
44027;BME280;29696;55.698;37.460;2022-08-21T14:07:32;100187.78;;;25.80;23.96